sensor_id;sensor_type;location;lat;lon;timestamp;temperature;humidity
62589;DHT22;58504;48.770;9.148;2022-11-30T00:01:10;20.50;55.50
62589;DHT22;58504;48.770;9.148;2022-11-30T00:03:37;20.50;55.50
62589;DHT22;58504;48.770;9.148;2022-11-30T00:06:04;20.50;55.50
62589;DHT22;58504;48.770;9.148;2022-11-30T00:08:33;20.50;55.60
62589;DHT22;58504;48.770;9.148;2022-11-30T00:10:59;20.50;55.50
62589;DHT22;58504;48.770;9.148;2022-11-30T00:13:26;20.40;55.40
62589;DHT22;58504;48.770;9.148;2022-11-30T00:15:53;20.40;55.50
62589;DHT22;58504;48.770;9.148;2022-11-30T00:18:20;20.40;55.50
62589;DHT22;58504;48.770;9.148;2022-11-30T00:20:46;20.40;55.60
62589;DHT22;58504;48.770;9.148;2022-11-30T00:23:13;20.40;55.50
62589;DHT22;58504;48.770;9.148;2022-11-30T00:25:41;20.40;55.50
62589;DHT22;58504;48.770;9.148;2022-11-30T00:28:08;20.40;55.60
62589;DHT22;58504;48.770;9.148;2022-11-30T00:30:35;20.40;55.60
62589;DHT22;58504;48.770;9.148;2022-11-30T00:33:01;20.30;55.50
62589;DHT22;58504;48.770;9.148;2022-11-30T00:35:28;20.40;55.60
62589;DHT22;58504;48.770;9.148;2022-11-30T00:37:56;20.30;55.50
62589;DHT22;58504;48.770;9.148;2022-11-30T00:40:23;20.30;55.50
62589;DHT22;58504;48.770;9.148;2022-11-30T00:42:51;20.30;55.60
62589;DHT22;58504;48.770;9.148;2022-11-30T00:45:18;20.30;55.60
62589;DHT22;58504;48.770;9.148;2022-11-30T00:47:44;20.30;55.60
62589;DHT22;58504;48.770;9.148;2022-11-30T00:50:11;20.30;55.60
62589;DHT22;58504;48.770;9.148;2022-11-30T00:52:38;20.30;55.70
62589;DHT22;58504;48.770;9.148;2022-11-30T00:55:06;20.30;55.80
62589;DHT22;58504;48.770;9.148;2022-11-30T00:57:33;20.30;55.70
62589;DHT22;58504;48.770;9.148;2022-11-30T01:00:01;20.20;55.70
62589;DHT22;58504;48.770;9.148;2022-11-30T01:02:28;20.20;55.70
62589;DHT22;58504;48.770;9.148;2022-11-30T01:04:54;20.20;55.70
62589;DHT22;58504;48.770;9.148;2022-11-30T01:07:21;20.20;55.70
62589;DHT22;58504;48.770;9.148;2022-11-30T01:09:48;20.20;55.70
62589;DHT22;58504;48.770;9.148;2022-11-30T01:12:15;20.20;55.70
62589;DHT22;58504;48.770;9.148;2022-11-30T01:14:41;20.20;55.70
62589;DHT22;58504;48.770;9.148;2022-11-30T01:17:09;20.20;55.70
62589;DHT22;58504;48.770;9.148;2022-11-30T01:19:36;20.10;55.80
62589;DHT22;58504;48.770;9.148;2022-11-30T01:22:03;20.10;55.70
62589;DHT22;58504;48.770;9.148;2022-11-30T01:24:30;20.10;55.80
62589;DHT22;58504;48.770;9.148;2022-11-30T01:26:56;20.10;55.80
62589;DHT22;58504;48.770;9.148;2022-11-30T01:29:23;20.10;55.80
62589;DHT22;58504;48.770;9.148;2022-11-30T01:31:50;20.10;55.80
62589;DHT22;58504;48.770;9.148;2022-11-30T01:34:19;20.10;55.80
62589;DHT22;58504;48.770;9.148;2022-11-30T01:36:46;20.10;55.80
62589;DHT22;58504;48.770;9.148;2022-11-30T01:39:13;20.10;55.90
62589;DHT22;58504;48.770;9.148;2022-11-30T01:41:40;20.00;55.80
62589;DHT22;58504;48.770;9.148;2022-11-30T01:44:45;20.10;55.90
62589;DHT22;58504;48.770;9.148;2022-11-30T01:47:13;20.00;55.70
62589;DHT22;58504;48.770;9.148;2022-11-30T01:49:44;20.00;55.80
62589;DHT22;58504;48.770;9.148;2022-11-30T01:52:14;20.00;55.90
62589;DHT22;58504;48.770;9.148;2022-11-30T01:54:44;20.00;55.90
62589;DHT22;58504;48.770;9.148;2022-11-30T01:57:14;20.00;55.90
62589;DHT22;58504;48.770;9.148;2022-11-30T01:59:44;20.00;55.90
62589;DHT22;58504;48.770;9.148;2022-11-30T02:02:11;20.00;56.50
62589;DHT22;58504;48.770;9.148;2022-11-30T02:04:38;20.00;56.00
62589;DHT22;58504;48.770;9.148;2022-11-30T02:07:07;20.00;56.00
62589;DHT22;58504;48.770;9.148;2022-11-30T02:09:39;19.90;55.90
62589;DHT22;58504;48.770;9.148;2022-11-30T02:12:10;19.90;55.90
62589;DHT22;58504;48.770;9.148;2022-11-30T02:14:46;19.90;56.00
62589;DHT22;58504;48.770;9.148;2022-11-30T02:17:20;19.90;56.00
62589;DHT22;58504;48.770;9.148;2022-11-30T02:20:17;19.90;56.10
62589;DHT22;58504;48.770;9.148;2022-11-30T02:23:06;19.90;56.10
62589;DHT22;58504;48.770;9.148;2022-11-30T02:25:41;19.90;56.10
62589;DHT22;58504;48.770;9.148;2022-11-30T02:31:07;19.90;56.10
62589;DHT22;58504;48.770;9.148;2022-11-30T02:33:38;19.90;56.10
62589;DHT22;58504;48.770;9.148;2022-11-30T02:36:07;19.90;56.20
62589;DHT22;58504;48.770;9.148;2022-11-30T02:38:35;19.90;56.20
62589;DHT22;58504;48.770;9.148;2022-11-30T02:41:03;19.80;56.10
62589;DHT22;58504;48.770;9.148;2022-11-30T02:43:31;19.80;56.70
62589;DHT22;58504;48.770;9.148;2022-11-30T02:46:04;19.80;56.10
62589;DHT22;58504;48.770;9.148;2022-11-30T02:48:41;19.80;56.10
62589;DHT22;58504;48.770;9.148;2022-11-30T02:51:12;19.80;56.10
62589;DHT22;58504;48.770;9.148;2022-11-30T02:53:39;19.80;56.10
62589;DHT22;58504;48.770;9.148;2022-11-30T02:56:07;19.80;56.10
62589;DHT22;58504;48.770;9.148;2022-11-30T02:58:33;19.80;56.10
62589;DHT22;58504;48.770;9.148;2022-11-30T03:01:00;19.70;56.00
62589;DHT22;58504;48.770;9.148;2022-11-30T03:03:28;19.80;56.20
62589;DHT22;58504;48.770;9.148;2022-11-30T03:05:55;19.80;56.20
62589;DHT22;58504;48.770;9.148;2022-11-30T03:08:22;19.70;56.10
62589;DHT22;58504;48.770;9.148;2022-11-30T03:10:49;19.70;56.20
62589;DHT22;58504;48.770;9.148;2022-11-30T03:13:15;19.70;56.20
62589;DHT22;58504;48.770;9.148;2022-11-30T03:15:42;19.70;56.20
62589;DHT22;58504;48.770;9.148;2022-11-30T03:18:09;19.70;56.20
62589;DHT22;58504;48.770;9.148;2022-11-30T03:20:41;19.70;56.30
62589;DHT22;58504;48.770;9.148;2022-11-30T03:23:08;19.70;56.20
62589;DHT22;58504;48.770;9.148;2022-11-30T03:25:35;19.70;56.30
62589;DHT22;58504;48.770;9.148;2022-11-30T03:28:02;19.70;56.30
62589;DHT22;58504;48.770;9.148;2022-11-30T03:30:29;19.70;56.30
62589;DHT22;58504;48.770;9.148;2022-11-30T03:32:55;19.70;56.30
62589;DHT22;58504;48.770;9.148;2022-11-30T03:35:22;19.70;56.30
62589;DHT22;58504;48.770;9.148;2022-11-30T03:37:50;19.70;56.20
62589;DHT22;58504;48.770;9.148;2022-11-30T03:40:17;19.70;56.10
62589;DHT22;58504;48.770;9.148;2022-11-30T03:42:44;19.70;56.20
62589;DHT22;58504;48.770;9.148;2022-11-30T03:45:11;19.70;56.20
62589;DHT22;58504;48.770;9.148;2022-11-30T03:47:37;19.70;56.10
62589;DHT22;58504;48.770;9.148;2022-11-30T03:50:05;19.70;56.20
62589;DHT22;58504;48.770;9.148;2022-11-30T03:52:32;19.70;56.20
62589;DHT22;58504;48.770;9.148;2022-11-30T03:55:00;19.70;56.20
62589;DHT22;58504;48.770;9.148;2022-11-30T03:57:27;19.60;56.00
62589;DHT22;58504;48.770;9.148;2022-11-30T03:59:54;19.60;56.10
62589;DHT22;58504;48.770;9.148;2022-11-30T04:02:20;19.60;56.10
62589;DHT22;58504;48.770;9.148;2022-11-30T04:04:47;19.70;56.20
62589;DHT22;58504;48.770;9.148;2022-11-30T04:07:14;19.60;56.10
62589;DHT22;58504;48.770;9.148;2022-11-30T04:09:41;19.60;56.10
62589;DHT22;58504;48.770;9.148;2022-11-30T04:12:09;19.60;56.00
62589;DHT22;58504;48.770;9.148;2022-11-30T04:14:35;19.60;56.10
62589;DHT22;58504;48.770;9.148;2022-11-30T04:17:02;19.60;56.20
62589;DHT22;58504;48.770;9.148;2022-11-30T04:19:29;19.60;56.10
62589;DHT22;58504;48.770;9.148;2022-11-30T04:21:56;19.60;56.20
62589;DHT22;58504;48.770;9.148;2022-11-30T04:24:22;19.60;56.10
62589;DHT22;58504;48.770;9.148;2022-11-30T04:26:49;19.60;56.10
62589;DHT22;58504;48.770;9.148;2022-11-30T04:29:17;19.60;56.20
62589;DHT22;58504;48.770;9.148;2022-11-30T04:31:44;19.70;56.20
62589;DHT22;58504;48.770;9.148;2022-11-30T04:34:11;19.90;55.90
62589;DHT22;58504;48.770;9.148;2022-11-30T04:36:37;20.30;55.90
62589;DHT22;58504;48.770;9.148;2022-11-30T04:39:04;20.70;54.60
62589;DHT22;58504;48.770;9.148;2022-11-30T04:41:31;21.10;53.90
62589;DHT22;58504;48.770;9.148;2022-11-30T04:43:58;21.40;53.20
62589;DHT22;58504;48.770;9.148;2022-11-30T04:46:26;21.70;52.60
62589;DHT22;58504;48.770;9.148;2022-11-30T04:48:52;21.90;52.30
62589;DHT22;58504;48.770;9.148;2022-11-30T04:51:19;22.10;52.00
62589;DHT22;58504;48.770;9.148;2022-11-30T04:53:46;22.20;51.70
62589;DHT22;58504;48.770;9.148;2022-11-30T04:56:12;22.30;51.50
62589;DHT22;58504;48.770;9.148;2022-11-30T04:58:39;22.40;51.30
62589;DHT22;58504;48.770;9.148;2022-11-30T05:01:06;22.40;51.00
62589;DHT22;58504;48.770;9.148;2022-11-30T05:03:34;22.50;50.90
62589;DHT22;58504;48.770;9.148;2022-11-30T05:06:01;22.60;50.70
62589;DHT22;58504;48.770;9.148;2022-11-30T05:08:28;22.60;50.60
62589;DHT22;58504;48.770;9.148;2022-11-30T05:10:55;22.70;50.40
62589;DHT22;58504;48.770;9.148;2022-11-30T05:13:24;22.80;50.30
62589;DHT22;58504;48.770;9.148;2022-11-30T05:15:51;22.90;50.20
62589;DHT22;58504;48.770;9.148;2022-11-30T05:18:18;22.90;50.10
62589;DHT22;58504;48.770;9.148;2022-11-30T05:20:48;23.00;50.00
62589;DHT22;58504;48.770;9.148;2022-11-30T05:23:15;23.00;49.90
62589;DHT22;58504;48.770;9.148;2022-11-30T05:25:42;23.00;49.80
62589;DHT22;58504;48.770;9.148;2022-11-30T05:28:09;23.10;49.80
62589;DHT22;58504;48.770;9.148;2022-11-30T05:30:37;23.10;49.70
62589;DHT22;58504;48.770;9.148;2022-11-30T05:33:04;23.20;49.70
62589;DHT22;58504;48.770;9.148;2022-11-30T05:35:31;23.20;49.60
62589;DHT22;58504;48.770;9.148;2022-11-30T05:37:59;23.20;49.40
62589;DHT22;58504;48.770;9.148;2022-11-30T05:40:26;23.20;49.40
62589;DHT22;58504;48.770;9.148;2022-11-30T05:42:54;23.30;49.40
62589;DHT22;58504;48.770;9.148;2022-11-30T05:45:22;23.30;49.30
62589;DHT22;58504;48.770;9.148;2022-11-30T05:47:49;23.30;49.30
62589;DHT22;58504;48.770;9.148;2022-11-30T05:50:16;23.30;49.20
62589;DHT22;58504;48.770;9.148;2022-11-30T05:52:43;23.40;49.30
62589;DHT22;58504;48.770;9.148;2022-11-30T05:55:11;23.40;49.20
62589;DHT22;58504;48.770;9.148;2022-11-30T05:57:38;23.40;49.10
62589;DHT22;58504;48.770;9.148;2022-11-30T06:00:07;23.40;49.20
62589;DHT22;58504;48.770;9.148;2022-11-30T06:02:34;23.30;49.20
62589;DHT22;58504;48.770;9.148;2022-11-30T06:05:01;23.20;49.30
62589;DHT22;58504;48.770;9.148;2022-11-30T06:07:29;23.10;49.40
62589;DHT22;58504;48.770;9.148;2022-11-30T06:09:55;23.10;49.60
62589;DHT22;58504;48.770;9.148;2022-11-30T06:12:23;23.00;49.80
62589;DHT22;58504;48.770;9.148;2022-11-30T06:14:50;22.90;49.90
62589;DHT22;58504;48.770;9.148;2022-11-30T06:17:17;22.80;50.10
62589;DHT22;58504;48.770;9.148;2022-11-30T06:19:44;22.60;50.20
62589;DHT22;58504;48.770;9.148;2022-11-30T06:22:10;22.50;50.40
62589;DHT22;58504;48.770;9.148;2022-11-30T06:24:37;22.50;50.60
62589;DHT22;58504;48.770;9.148;2022-11-30T06:27:04;22.50;50.60
62589;DHT22;58504;48.770;9.148;2022-11-30T06:29:32;22.70;50.60
62589;DHT22;58504;48.770;9.148;2022-11-30T06:31:59;22.90;50.60
62589;DHT22;58504;48.770;9.148;2022-11-30T06:34:25;23.10;50.50
62589;DHT22;58504;48.770;9.148;2022-11-30T06:36:52;23.30;50.10
62589;DHT22;58504;48.770;9.148;2022-11-30T06:39:19;23.40;49.90
62589;DHT22;58504;48.770;9.148;2022-11-30T06:41:46;23.40;49.70
62589;DHT22;58504;48.770;9.148;2022-11-30T06:44:12;23.40;49.70
62589;DHT22;58504;48.770;9.148;2022-11-30T06:46:41;23.30;49.60
62589;DHT22;58504;48.770;9.148;2022-11-30T06:49:07;23.30;49.80
62589;DHT22;58504;48.770;9.148;2022-11-30T06:51:34;23.10;49.80
62589;DHT22;58504;48.770;9.148;2022-11-30T06:54:01;23.00;50.00
62589;DHT22;58504;48.770;9.148;2022-11-30T06:56:28;22.90;50.20
62589;DHT22;58504;48.770;9.148;2022-11-30T06:58:55;22.80;50.40
62589;DHT22;58504;48.770;9.148;2022-11-30T07:01:22;22.70;50.60
62589;DHT22;58504;48.770;9.148;2022-11-30T07:03:50;22.60;50.80
62589;DHT22;58504;48.770;9.148;2022-11-30T07:06:17;22.50;51.10
62589;DHT22;58504;48.770;9.148;2022-11-30T07:08:43;22.40;51.20
62589;DHT22;58504;48.770;9.148;2022-11-30T07:11:11;22.30;51.30
62589;DHT22;58504;48.770;9.148;2022-11-30T07:13:38;22.20;51.50
62589;DHT22;58504;48.770;9.148;2022-11-30T07:16:06;22.10;51.70
62589;DHT22;58504;48.770;9.148;2022-11-30T07:18:33;22.00;51.90
62589;DHT22;58504;48.770;9.148;2022-11-30T07:21:03;21.90;52.00
62589;DHT22;58504;48.770;9.148;2022-11-30T07:23:30;21.90;52.20
62589;DHT22;58504;48.770;9.148;2022-11-30T07:26:15;21.80;52.30
62589;DHT22;58504;48.770;9.148;2022-11-30T07:28:43;21.80;52.40
62589;DHT22;58504;48.770;9.148;2022-11-30T07:31:16;22.00;52.40
62589;DHT22;58504;48.770;9.148;2022-11-30T07:33:44;22.20;52.00
62589;DHT22;58504;48.770;9.148;2022-11-30T07:36:12;22.50;51.60
62589;DHT22;58504;48.770;9.148;2022-11-30T07:38:39;22.60;51.00
62589;DHT22;58504;48.770;9.148;2022-11-30T07:41:06;22.80;50.80
62589;DHT22;58504;48.770;9.148;2022-11-30T07:43:33;22.80;50.70
62589;DHT22;58504;48.770;9.148;2022-11-30T07:46:00;22.90;50.60
62589;DHT22;58504;48.770;9.148;2022-11-30T07:48:27;22.90;50.60
62589;DHT22;58504;48.770;9.148;2022-11-30T07:51:00;22.90;50.70
62589;DHT22;58504;48.770;9.148;2022-11-30T07:53:28;22.80;50.80
62589;DHT22;58504;48.770;9.148;2022-11-30T07:56:00;22.80;50.90
62589;DHT22;58504;48.770;9.148;2022-11-30T07:58:27;22.70;51.00
62589;DHT22;58504;48.770;9.148;2022-11-30T08:01:00;22.60;51.20
62589;DHT22;58504;48.770;9.148;2022-11-30T08:03:26;22.50;51.30
62589;DHT22;58504;48.770;9.148;2022-11-30T08:05:57;22.40;51.50
62589;DHT22;58504;48.770;9.148;2022-11-30T08:08:29;22.40;51.80
62589;DHT22;58504;48.770;9.148;2022-11-30T08:10:56;22.30;51.90
62589;DHT22;58504;48.770;9.148;2022-11-30T08:13:23;22.20;52.00
62589;DHT22;58504;48.770;9.148;2022-11-30T08:15:50;22.20;52.80
62589;DHT22;58504;48.770;9.148;2022-11-30T08:18:17;22.20;52.40
62589;DHT22;58504;48.770;9.148;2022-11-30T08:20:43;22.30;52.50
62589;DHT22;58504;48.770;9.148;2022-11-30T08:23:11;22.50;52.20
62589;DHT22;58504;48.770;9.148;2022-11-30T08:25:39;22.80;52.00
62589;DHT22;58504;48.770;9.148;2022-11-30T08:28:06;23.00;51.70
62589;DHT22;58504;48.770;9.148;2022-11-30T08:30:35;23.20;51.50
62589;DHT22;58504;48.770;9.148;2022-11-30T08:33:01;23.20;51.40
62589;DHT22;58504;48.770;9.148;2022-11-30T08:35:28;23.30;51.30
62589;DHT22;58504;48.770;9.148;2022-11-30T08:37:55;23.30;51.20
62589;DHT22;58504;48.770;9.148;2022-11-30T08:40:22;23.30;51.30
62589;DHT22;58504;48.770;9.148;2022-11-30T08:42:50;23.20;51.30
62589;DHT22;58504;48.770;9.148;2022-11-30T08:45:16;23.20;51.40
62589;DHT22;58504;48.770;9.148;2022-11-30T08:47:43;23.10;51.50
62589;DHT22;58504;48.770;9.148;2022-11-30T08:50:10;23.00;51.60
62589;DHT22;58504;48.770;9.148;2022-11-30T08:52:37;22.90;51.80
62589;DHT22;58504;48.770;9.148;2022-11-30T08:55:04;22.80;51.90
62589;DHT22;58504;48.770;9.148;2022-11-30T08:57:32;22.80;52.10
62589;DHT22;58504;48.770;9.148;2022-11-30T09:00:01;22.60;52.20
62589;DHT22;58504;48.770;9.148;2022-11-30T09:02:27;22.60;52.40
62589;DHT22;58504;48.770;9.148;2022-11-30T09:04:54;22.50;52.60
62589;DHT22;58504;48.770;9.148;2022-11-30T09:07:21;22.40;52.80
62589;DHT22;58504;48.770;9.148;2022-11-30T09:09:48;22.30;52.90
62589;DHT22;58504;48.770;9.148;2022-11-30T09:12:14;22.30;53.20
62589;DHT22;58504;48.770;9.148;2022-11-30T09:14:41;22.20;53.80
62589;DHT22;58504;48.770;9.148;2022-11-30T09:17:11;22.10;53.40
62589;DHT22;58504;48.770;9.148;2022-11-30T09:19:38;22.00;53.50
62589;DHT22;58504;48.770;9.148;2022-11-30T09:22:04;22.00;53.50
62589;DHT22;58504;48.770;9.148;2022-11-30T09:24:31;21.90;53.60
62589;DHT22;58504;48.770;9.148;2022-11-30T09:26:58;22.00;53.80
62589;DHT22;58504;48.770;9.148;2022-11-30T09:29:24;22.20;53.50
62589;DHT22;58504;48.770;9.148;2022-11-30T09:31:51;22.50;53.10
62589;DHT22;58504;48.770;9.148;2022-11-30T09:34:19;22.80;52.50
62589;DHT22;58504;48.770;9.148;2022-11-30T09:36:46;23.00;51.90
62589;DHT22;58504;48.770;9.148;2022-11-30T09:39:13;23.20;51.60
62589;DHT22;58504;48.770;9.148;2022-11-30T09:42:10;23.30;51.30
62589;DHT22;58504;48.770;9.148;2022-11-30T09:44:45;23.30;51.10
62589;DHT22;58504;48.770;9.148;2022-11-30T09:47:27;23.40;51.20
62589;DHT22;58504;48.770;9.148;2022-11-30T09:50:02;23.30;51.10
62589;DHT22;58504;48.770;9.148;2022-11-30T09:52:34;23.30;51.20
62589;DHT22;58504;48.770;9.148;2022-11-30T09:55:06;23.20;51.30
62589;DHT22;58504;48.770;9.148;2022-11-30T09:57:40;23.10;51.40
62589;DHT22;58504;48.770;9.148;2022-11-30T10:00:13;23.10;51.50
62589;DHT22;58504;48.770;9.148;2022-11-30T10:02:41;23.00;51.60
62589;DHT22;58504;48.770;9.148;2022-11-30T10:05:14;22.90;51.70
62589;DHT22;58504;48.770;9.148;2022-11-30T10:07:58;22.80;51.80
62589;DHT22;58504;48.770;9.148;2022-11-30T10:10:33;22.80;51.90
62589;DHT22;58504;48.770;9.148;2022-11-30T10:13:13;22.70;52.10
62589;DHT22;58504;48.770;9.148;2022-11-30T10:15:54;22.60;52.30
62589;DHT22;58504;48.770;9.148;2022-11-30T10:18:29;22.50;52.50
62589;DHT22;58504;48.770;9.148;2022-11-30T10:21:05;22.50;52.60
62589;DHT22;58504;48.770;9.148;2022-11-30T10:23:55;22.40;52.60
62589;DHT22;58504;48.770;9.148;2022-11-30T10:26:30;22.40;52.80
62589;DHT22;58504;48.770;9.148;2022-11-30T10:29:02;22.30;52.80
62589;DHT22;58504;48.770;9.148;2022-11-30T10:31:33;22.50;52.80
62589;DHT22;58504;48.770;9.148;2022-11-30T10:34:15;22.70;52.50
62589;DHT22;58504;48.770;9.148;2022-11-30T10:36:48;23.00;51.90
62589;DHT22;58504;48.770;9.148;2022-11-30T10:39:20;23.20;51.40
62589;DHT22;58504;48.770;9.148;2022-11-30T10:41:50;23.50;51.00
62589;DHT22;58504;48.770;9.148;2022-11-30T10:44:21;23.50;50.60
62589;DHT22;58504;48.770;9.148;2022-11-30T10:46:54;23.60;50.60
62589;DHT22;58504;48.770;9.148;2022-11-30T10:49:22;23.50;50.40
62589;DHT22;58504;48.770;9.148;2022-11-30T10:51:53;23.50;50.50
62589;DHT22;58504;48.770;9.148;2022-11-30T10:54:22;23.50;50.70
62589;DHT22;58504;48.770;9.148;2022-11-30T10:56:49;23.40;50.70
62589;DHT22;58504;48.770;9.148;2022-11-30T10:59:18;23.30;50.80
62589;DHT22;58504;48.770;9.148;2022-11-30T11:01:47;23.20;51.00
62589;DHT22;58504;48.770;9.148;2022-11-30T11:04:15;23.10;51.60
62589;DHT22;58504;48.770;9.148;2022-11-30T11:06:44;23.10;51.20
62589;DHT22;58504;48.770;9.148;2022-11-30T11:09:32;23.00;51.40
62589;DHT22;58504;48.770;9.148;2022-11-30T11:12:01;22.80;51.40
62589;DHT22;58504;48.770;9.148;2022-11-30T11:14:29;22.80;51.70
62589;DHT22;58504;48.770;9.148;2022-11-30T11:16:58;22.70;51.80
62589;DHT22;58504;48.770;9.148;2022-11-30T11:19:36;22.60;51.90
62589;DHT22;58504;48.770;9.148;2022-11-30T11:22:06;22.50;52.10
62589;DHT22;58504;48.770;9.148;2022-11-30T11:24:37;22.40;52.10
62589;DHT22;58504;48.770;9.148;2022-11-30T11:27:04;22.30;52.20
62589;DHT22;58504;48.770;9.148;2022-11-30T11:29:32;22.20;52.30
62589;DHT22;58504;48.770;9.148;2022-11-30T11:32:21;22.20;52.60
62589;DHT22;58504;48.770;9.148;2022-11-30T11:34:49;22.30;53.10
62589;DHT22;58504;48.770;9.148;2022-11-30T11:37:22;22.60;52.30
62589;DHT22;58504;48.770;9.148;2022-11-30T11:40:00;22.90;51.90
62589;DHT22;58504;48.770;9.148;2022-11-30T11:42:30;23.10;51.40
62589;DHT22;58504;48.770;9.148;2022-11-30T11:44:58;23.30;51.00
62589;DHT22;58504;48.770;9.148;2022-11-30T11:47:27;23.40;50.70
62589;DHT22;58504;48.770;9.148;2022-11-30T11:50:23;23.40;50.50
62589;DHT22;58504;48.770;9.148;2022-11-30T11:55:54;23.40;50.50
62589;DHT22;58504;48.770;9.148;2022-11-30T11:58:30;23.40;50.60
62589;DHT22;58504;48.770;9.148;2022-11-30T12:01:00;23.30;50.70
62589;DHT22;58504;48.770;9.148;2022-11-30T12:03:35;23.20;50.80
62589;DHT22;58504;48.770;9.148;2022-11-30T12:06:08;23.20;51.00
62589;DHT22;58504;48.770;9.148;2022-11-30T12:08:43;23.10;51.10
62589;DHT22;58504;48.770;9.148;2022-11-30T12:11:14;23.00;51.10
62589;DHT22;58504;48.770;9.148;2022-11-30T12:13:44;22.90;51.30
62589;DHT22;58504;48.770;9.148;2022-11-30T12:16:29;22.80;51.50
62589;DHT22;58504;48.770;9.148;2022-11-30T12:19:01;22.70;51.70
62589;DHT22;58504;48.770;9.148;2022-11-30T12:21:36;22.60;51.80
62589;DHT22;58504;48.770;9.148;2022-11-30T12:24:29;22.50;51.80
62589;DHT22;58504;48.770;9.148;2022-11-30T12:27:06;22.50;52.70
62589;DHT22;58504;48.770;9.148;2022-11-30T12:29:43;22.40;52.40
62589;DHT22;58504;48.770;9.148;2022-11-30T12:32:22;22.30;52.50
62589;DHT22;58504;48.770;9.148;2022-11-30T12:35:07;22.20;52.70
62589;DHT22;58504;48.770;9.148;2022-11-30T12:37:43;22.20;52.80
62589;DHT22;58504;48.770;9.148;2022-11-30T12:40:21;22.30;52.90
62589;DHT22;58504;48.770;9.148;2022-11-30T12:43:02;22.50;52.40
62589;DHT22;58504;48.770;9.148;2022-11-30T12:45:36;22.90;52.00
62589;DHT22;58504;48.770;9.148;2022-11-30T12:48:13;23.20;51.50
62589;DHT22;58504;48.770;9.148;2022-11-30T12:50:54;23.30;51.00
62589;DHT22;58504;48.770;9.148;2022-11-30T12:53:31;23.40;50.70
62589;DHT22;58504;48.770;9.148;2022-11-30T12:56:09;23.50;50.60
62589;DHT22;58504;48.770;9.148;2022-11-30T12:58:46;23.50;50.60
62589;DHT22;58504;48.770;9.148;2022-11-30T13:01:27;23.50;50.60
62589;DHT22;58504;48.770;9.148;2022-11-30T13:04:00;23.40;50.70
62589;DHT22;58504;48.770;9.148;2022-11-30T13:06:32;23.40;50.60
62589;DHT22;58504;48.770;9.148;2022-11-30T13:09:02;23.30;50.70
62589;DHT22;58504;48.770;9.148;2022-11-30T13:11:34;23.20;50.90
62589;DHT22;58504;48.770;9.148;2022-11-30T13:14:05;23.10;51.10
62589;DHT22;58504;48.770;9.148;2022-11-30T13:16:35;23.00;51.30
62589;DHT22;58504;48.770;9.148;2022-11-30T13:19:12;22.90;51.40
62589;DHT22;58504;48.770;9.148;2022-11-30T13:21:45;22.90;51.70
62589;DHT22;58504;48.770;9.148;2022-11-30T13:24:20;22.70;51.70
62589;DHT22;58504;48.770;9.148;2022-11-30T13:26:52;22.70;51.90
62589;DHT22;58504;48.770;9.148;2022-11-30T13:32:18;22.50;52.30
62589;DHT22;58504;48.770;9.148;2022-11-30T13:34:45;22.40;52.40
62589;DHT22;58504;48.770;9.148;2022-11-30T13:37:17;22.40;52.60
62589;DHT22;58504;48.770;9.148;2022-11-30T13:39:46;22.30;52.70
62589;DHT22;58504;48.770;9.148;2022-11-30T13:42:32;22.20;52.80
62589;DHT22;58504;48.770;9.148;2022-11-30T13:47:50;22.30;52.80
62589;DHT22;58504;48.770;9.148;2022-11-30T13:50:23;22.60;52.40
62589;DHT22;58504;48.770;9.148;2022-11-30T13:53:20;22.90;52.00
62589;DHT22;58504;48.770;9.148;2022-11-30T14:01:47;23.30;51.30
62589;DHT22;58504;48.770;9.148;2022-11-30T14:04:31;23.30;51.20
62589;DHT22;58504;48.770;9.148;2022-11-30T14:06:58;23.30;51.30
62589;DHT22;58504;48.770;9.148;2022-11-30T14:09:58;23.30;51.30
62589;DHT22;58504;48.770;9.148;2022-11-30T14:12:49;23.20;51.40
62589;DHT22;58504;48.770;9.148;2022-11-30T14:18:36;23.00;51.50
62589;DHT22;58504;48.770;9.148;2022-11-30T14:21:16;23.00;51.70
62589;DHT22;58504;48.770;9.148;2022-11-30T14:23:50;22.90;51.80
62589;DHT22;58504;48.770;9.148;2022-11-30T14:26:22;23.00;51.80
62589;DHT22;58504;48.770;9.148;2022-11-30T14:28:52;23.20;51.50
62589;DHT22;58504;48.770;9.148;2022-11-30T14:31:23;23.40;51.10
62589;DHT22;58504;48.770;9.148;2022-11-30T14:33:53;23.60;50.70
62589;DHT22;58504;48.770;9.148;2022-11-30T14:36:26;23.70;50.50
62589;DHT22;58504;48.770;9.148;2022-11-30T14:38:53;23.80;50.40
62589;DHT22;58504;48.770;9.148;2022-11-30T14:41:22;23.80;50.20
62589;DHT22;58504;48.770;9.148;2022-11-30T14:44:05;23.80;50.10
62589;DHT22;58504;48.770;9.148;2022-11-30T14:46:33;23.90;50.10
62589;DHT22;58504;48.770;9.148;2022-11-30T14:49:12;23.90;50.00
62589;DHT22;58504;48.770;9.148;2022-11-30T14:51:42;23.90;50.10
62589;DHT22;58504;48.770;9.148;2022-11-30T14:54:25;23.90;50.10
62589;DHT22;58504;48.770;9.148;2022-11-30T14:56:59;24.00;50.00
62589;DHT22;58504;48.770;9.148;2022-11-30T14:59:40;24.00;50.00
62589;DHT22;58504;48.770;9.148;2022-11-30T15:02:19;24.00;49.90
62589;DHT22;58504;48.770;9.148;2022-11-30T15:04:47;24.00;49.90
62589;DHT22;58504;48.770;9.148;2022-11-30T15:07:16;24.00;49.90
62589;DHT22;58504;48.770;9.148;2022-11-30T15:09:47;24.00;49.90
62589;DHT22;58504;48.770;9.148;2022-11-30T15:12:19;24.10;50.00
62589;DHT22;58504;48.770;9.148;2022-11-30T15:15:11;24.10;49.90
62589;DHT22;58504;48.770;9.148;2022-11-30T15:17:48;24.10;49.70
62589;DHT22;58504;48.770;9.148;2022-11-30T15:20:28;24.10;49.70
62589;DHT22;58504;48.770;9.148;2022-11-30T15:22:59;24.20;49.70
62589;DHT22;58504;48.770;9.148;2022-11-30T15:25:31;24.10;49.70
62589;DHT22;58504;48.770;9.148;2022-11-30T15:27:59;24.10;49.60
62589;DHT22;58504;48.770;9.148;2022-11-30T15:30:26;24.20;49.70
62589;DHT22;58504;48.770;9.148;2022-11-30T15:32:55;24.10;49.60
62589;DHT22;58504;48.770;9.148;2022-11-30T15:35:24;24.20;49.70
62589;DHT22;58504;48.770;9.148;2022-11-30T15:37:52;24.20;49.70
62589;DHT22;58504;48.770;9.148;2022-11-30T15:40:31;24.20;49.70
62589;DHT22;58504;48.770;9.148;2022-11-30T15:42:59;24.20;49.70
62589;DHT22;58504;48.770;9.148;2022-11-30T15:45:28;24.20;49.60
62589;DHT22;58504;48.770;9.148;2022-11-30T15:47:56;24.20;49.70
62589;DHT22;58504;48.770;9.148;2022-11-30T15:50:36;24.20;49.70
62589;DHT22;58504;48.770;9.148;2022-11-30T15:53:29;24.20;49.70
62589;DHT22;58504;48.770;9.148;2022-11-30T15:55:59;24.20;49.60
62589;DHT22;58504;48.770;9.148;2022-11-30T15:58:30;24.20;49.60
62589;DHT22;58504;48.770;9.148;2022-11-30T16:01:02;24.30;49.90
62589;DHT22;58504;48.770;9.148;2022-11-30T16:03:30;24.30;50.00
62589;DHT22;58504;48.770;9.148;2022-11-30T16:05:59;24.30;50.00
62589;DHT22;58504;48.770;9.148;2022-11-30T16:08:26;24.30;50.00
62589;DHT22;58504;48.770;9.148;2022-11-30T16:10:53;24.30;49.90